sensor_id;sensor_type;location;lat;lon;timestamp;P1;durP1;ratioP1;P2;durP2;ratioP2
11481;SDS011;5797;51.662;6.748;2023-08-06T00:00:31;9.50;;;5.73;;
11481;SDS011;5797;51.662;6.748;2023-08-06T00:02:59;7.37;;;5.57;;
11481;SDS011;5797;51.662;6.748;2023-08-06T00:05:28;10.33;;;5.10;;
11481;SDS011;5797;51.662;6.748;2023-08-06T00:07:56;7.40;;;5.00;;
11481;SDS011;5797;51.662;6.748;2023-08-06T00:10:25;7.97;;;4.70;;
11481;SDS011;5797;51.662;6.748;2023-08-06T00:12:54;5.50;;;4.73;;
11481;SDS011;5797;51.662;6.748;2023-08-06T00:15:23;9.13;;;4.07;;
11481;SDS011;5797;51.662;6.748;2023-08-06T00:17:51;7.47;;;4.47;;
11481;SDS011;5797;51.662;6.748;2023-08-06T00:20:20;7.03;;;4.00;;
11481;SDS011;5797;51.662;6.748;2023-08-06T00:22:49;5.43;;;3.77;;
11481;SDS011;5797;51.662;6.748;2023-08-06T00:25:18;5.10;;;3.90;;
11481;SDS011;5797;51.662;6.748;2023-08-06T00:27:46;6.37;;;3.93;;
11481;SDS011;5797;51.662;6.748;2023-08-06T00:30:16;4.77;;;3.53;;
11481;SDS011;5797;51.662;6.748;2023-08-06T00:32:45;6.07;;;3.93;;
11481;SDS011;5797;51.662;6.748;2023-08-06T00:35:13;4.77;;;4.00;;
11481;SDS011;5797;51.662;6.748;2023-08-06T00:37:42;10.40;;;4.47;;
11481;SDS011;5797;51.662;6.748;2023-08-06T00:40:10;5.07;;;3.90;;
11481;SDS011;5797;51.662;6.748;2023-08-06T00:42:39;7.63;;;4.70;;
11481;SDS011;5797;51.662;6.748;2023-08-06T00:45:07;8.00;;;4.07;;
11481;SDS011;5797;51.662;6.748;2023-08-06T00:47:37;9.90;;;3.93;;
11481;SDS011;5797;51.662;6.748;2023-08-06T00:50:06;5.97;;;4.33;;
11481;SDS011;5797;51.662;6.748;2023-08-06T00:52:36;7.80;;;4.67;;
11481;SDS011;5797;51.662;6.748;2023-08-06T00:55:05;5.47;;;4.40;;
11481;SDS011;5797;51.662;6.748;2023-08-06T00:57:34;6.07;;;4.60;;
11481;SDS011;5797;51.662;6.748;2023-08-06T01:00:03;6.70;;;4.40;;
11481;SDS011;5797;51.662;6.748;2023-08-06T01:02:33;10.50;;;4.93;;
11481;SDS011;5797;51.662;6.748;2023-08-06T01:05:03;9.13;;;4.57;;
11481;SDS011;5797;51.662;6.748;2023-08-06T01:07:35;7.17;;;4.60;;
11481;SDS011;5797;51.662;6.748;2023-08-06T01:10:14;6.27;;;4.27;;
11481;SDS011;5797;51.662;6.748;2023-08-06T01:12:48;6.90;;;4.40;;
11481;SDS011;5797;51.662;6.748;2023-08-06T01:15:21;9.33;;;4.50;;
11481;SDS011;5797;51.662;6.748;2023-08-06T01:17:57;9.13;;;4.20;;
11481;SDS011;5797;51.662;6.748;2023-08-06T01:20:31;8.00;;;4.17;;
11481;SDS011;5797;51.662;6.748;2023-08-06T01:22:59;9.67;;;5.07;;
11481;SDS011;5797;51.662;6.748;2023-08-06T01:25:29;7.30;;;4.80;;
11481;SDS011;5797;51.662;6.748;2023-08-06T01:28:03;6.63;;;4.63;;
11481;SDS011;5797;51.662;6.748;2023-08-06T01:30:34;7.90;;;5.23;;
11481;SDS011;5797;51.662;6.748;2023-08-06T01:33:09;9.10;;;5.37;;
11481;SDS011;5797;51.662;6.748;2023-08-06T01:35:42;6.30;;;4.97;;
11481;SDS011;5797;51.662;6.748;2023-08-06T01:38:13;7.83;;;5.30;;
11481;SDS011;5797;51.662;6.748;2023-08-06T01:40:42;8.70;;;5.53;;
11481;SDS011;5797;51.662;6.748;2023-08-06T01:43:10;8.13;;;5.70;;
11481;SDS011;5797;51.662;6.748;2023-08-06T01:45:39;8.90;;;5.80;;
11481;SDS011;5797;51.662;6.748;2023-08-06T01:48:07;7.10;;;5.90;;
11481;SDS011;5797;51.662;6.748;2023-08-06T01:50:36;10.70;;;5.97;;
11481;SDS011;5797;51.662;6.748;2023-08-06T01:53:05;8.63;;;6.17;;
11481;SDS011;5797;51.662;6.748;2023-08-06T01:55:34;9.10;;;6.07;;
11481;SDS011;5797;51.662;6.748;2023-08-06T01:58:03;9.27;;;5.87;;
11481;SDS011;5797;51.662;6.748;2023-08-06T02:00:31;10.50;;;6.60;;
11481;SDS011;5797;51.662;6.748;2023-08-06T02:03:00;9.97;;;6.30;;
11481;SDS011;5797;51.662;6.748;2023-08-06T02:05:28;9.57;;;6.33;;
11481;SDS011;5797;51.662;6.748;2023-08-06T02:07:58;7.40;;;5.80;;
11481;SDS011;5797;51.662;6.748;2023-08-06T02:10:28;9.33;;;6.27;;
11481;SDS011;5797;51.662;6.748;2023-08-06T02:12:56;13.60;;;6.40;;
11481;SDS011;5797;51.662;6.748;2023-08-06T02:15:25;10.20;;;6.60;;
11481;SDS011;5797;51.662;6.748;2023-08-06T02:17:53;9.27;;;6.30;;
11481;SDS011;5797;51.662;6.748;2023-08-06T02:20:22;10.80;;;6.13;;
11481;SDS011;5797;51.662;6.748;2023-08-06T02:22:51;10.67;;;6.33;;
11481;SDS011;5797;51.662;6.748;2023-08-06T02:25:20;10.60;;;6.47;;
11481;SDS011;5797;51.662;6.748;2023-08-06T02:27:50;8.60;;;6.37;;
11481;SDS011;5797;51.662;6.748;2023-08-06T02:30:18;9.07;;;6.57;;
11481;SDS011;5797;51.662;6.748;2023-08-06T02:32:47;12.27;;;6.80;;
11481;SDS011;5797;51.662;6.748;2023-08-06T02:35:15;8.33;;;6.43;;
11481;SDS011;5797;51.662;6.748;2023-08-06T02:37:46;9.83;;;6.53;;
11481;SDS011;5797;51.662;6.748;2023-08-06T02:40:14;10.90;;;6.20;;
11481;SDS011;5797;51.662;6.748;2023-08-06T02:42:43;9.77;;;6.27;;
11481;SDS011;5797;51.662;6.748;2023-08-06T02:45:13;7.90;;;5.70;;
11481;SDS011;5797;51.662;6.748;2023-08-06T02:47:41;10.57;;;5.87;;
11481;SDS011;5797;51.662;6.748;2023-08-06T02:50:10;7.57;;;5.33;;
11481;SDS011;5797;51.662;6.748;2023-08-06T02:52:38;8.77;;;5.17;;
11481;SDS011;5797;51.662;6.748;2023-08-06T02:55:08;8.87;;;5.00;;
11481;SDS011;5797;51.662;6.748;2023-08-06T02:57:41;5.20;;;4.63;;
11481;SDS011;5797;51.662;6.748;2023-08-06T03:00:10;5.27;;;4.37;;
11481;SDS011;5797;51.662;6.748;2023-08-06T03:02:41;4.93;;;4.00;;
11481;SDS011;5797;51.662;6.748;2023-08-06T03:05:21;5.17;;;4.30;;
11481;SDS011;5797;51.662;6.748;2023-08-06T03:07:50;7.80;;;4.57;;
11481;SDS011;5797;51.662;6.748;2023-08-06T03:10:25;9.80;;;4.50;;
11481;SDS011;5797;51.662;6.748;2023-08-06T03:12:56;4.63;;;3.83;;
11481;SDS011;5797;51.662;6.748;2023-08-06T03:15:24;6.37;;;4.20;;
11481;SDS011;5797;51.662;6.748;2023-08-06T03:17:56;6.20;;;3.93;;
11481;SDS011;5797;51.662;6.748;2023-08-06T03:20:25;7.20;;;4.13;;
11481;SDS011;5797;51.662;6.748;2023-08-06T03:22:54;7.83;;;4.23;;
11481;SDS011;5797;51.662;6.748;2023-08-06T03:25:23;5.83;;;4.17;;
11481;SDS011;5797;51.662;6.748;2023-08-06T03:27:51;14.30;;;4.83;;
11481;SDS011;5797;51.662;6.748;2023-08-06T03:30:20;9.37;;;4.10;;
11481;SDS011;5797;51.662;6.748;2023-08-06T03:32:51;6.60;;;4.43;;
11481;SDS011;5797;51.662;6.748;2023-08-06T03:35:22;6.93;;;3.97;;
11481;SDS011;5797;51.662;6.748;2023-08-06T03:37:51;8.83;;;4.40;;
11481;SDS011;5797;51.662;6.748;2023-08-06T03:40:19;8.13;;;4.43;;
11481;SDS011;5797;51.662;6.748;2023-08-06T03:42:48;8.90;;;4.80;;
11481;SDS011;5797;51.662;6.748;2023-08-06T03:45:16;9.87;;;5.03;;
11481;SDS011;5797;51.662;6.748;2023-08-06T03:47:45;6.50;;;4.60;;
11481;SDS011;5797;51.662;6.748;2023-08-06T03:50:15;5.07;;;3.87;;
11481;SDS011;5797;51.662;6.748;2023-08-06T03:52:45;8.60;;;4.27;;
11481;SDS011;5797;51.662;6.748;2023-08-06T03:55:13;7.77;;;4.50;;
11481;SDS011;5797;51.662;6.748;2023-08-06T03:57:42;8.33;;;4.30;;
11481;SDS011;5797;51.662;6.748;2023-08-06T04:00:11;5.87;;;4.47;;
11481;SDS011;5797;51.662;6.748;2023-08-06T04:02:47;8.20;;;4.60;;
11481;SDS011;5797;51.662;6.748;2023-08-06T04:05:17;7.10;;;4.63;;
11481;SDS011;5797;51.662;6.748;2023-08-06T04:07:46;9.67;;;4.57;;
11481;SDS011;5797;51.662;6.748;2023-08-06T04:10:15;5.97;;;4.57;;
11481;SDS011;5797;51.662;6.748;2023-08-06T04:12:43;6.20;;;4.50;;
11481;SDS011;5797;51.662;6.748;2023-08-06T04:15:12;6.03;;;4.67;;
11481;SDS011;5797;51.662;6.748;2023-08-06T04:17:40;5.57;;;3.77;;
11481;SDS011;5797;51.662;6.748;2023-08-06T04:20:09;6.33;;;3.87;;
11481;SDS011;5797;51.662;6.748;2023-08-06T04:22:38;5.87;;;4.57;;
11481;SDS011;5797;51.662;6.748;2023-08-06T04:25:08;7.53;;;4.93;;
11481;SDS011;5797;51.662;6.748;2023-08-06T04:27:37;6.63;;;5.10;;
11481;SDS011;5797;51.662;6.748;2023-08-06T04:30:09;7.67;;;5.27;;
11481;SDS011;5797;51.662;6.748;2023-08-06T04:32:40;8.57;;;4.90;;
11481;SDS011;5797;51.662;6.748;2023-08-06T04:35:10;6.13;;;4.53;;
11481;SDS011;5797;51.662;6.748;2023-08-06T04:37:39;5.73;;;4.57;;
11481;SDS011;5797;51.662;6.748;2023-08-06T04:40:12;7.27;;;4.53;;
11481;SDS011;5797;51.662;6.748;2023-08-06T04:42:40;8.47;;;4.73;;
11481;SDS011;5797;51.662;6.748;2023-08-06T04:45:09;5.77;;;4.50;;
11481;SDS011;5797;51.662;6.748;2023-08-06T04:47:38;7.73;;;5.10;;
11481;SDS011;5797;51.662;6.748;2023-08-06T04:50:06;9.03;;;4.50;;
11481;SDS011;5797;51.662;6.748;2023-08-06T04:52:35;8.37;;;4.73;;
11481;SDS011;5797;51.662;6.748;2023-08-06T04:55:04;6.43;;;4.90;;
11481;SDS011;5797;51.662;6.748;2023-08-06T04:57:35;7.03;;;4.87;;
11481;SDS011;5797;51.662;6.748;2023-08-06T05:00:04;7.93;;;4.97;;
11481;SDS011;5797;51.662;6.748;2023-08-06T05:02:33;10.23;;;5.03;;
11481;SDS011;5797;51.662;6.748;2023-08-06T05:05:05;6.83;;;5.33;;
11481;SDS011;5797;51.662;6.748;2023-08-06T05:07:33;9.50;;;6.03;;
11481;SDS011;5797;51.662;6.748;2023-08-06T05:10:02;10.33;;;5.87;;
11481;SDS011;5797;51.662;6.748;2023-08-06T05:12:31;11.53;;;6.23;;
11481;SDS011;5797;51.662;6.748;2023-08-06T05:15:01;7.50;;;5.80;;
11481;SDS011;5797;51.662;6.748;2023-08-06T05:17:30;11.27;;;5.30;;
11481;SDS011;5797;51.662;6.748;2023-08-06T05:19:58;10.80;;;5.90;;
11481;SDS011;5797;51.662;6.748;2023-08-06T05:22:27;8.73;;;5.47;;
11481;SDS011;5797;51.662;6.748;2023-08-06T05:24:55;6.57;;;5.53;;
11481;SDS011;5797;51.662;6.748;2023-08-06T05:27:24;9.23;;;6.07;;
11481;SDS011;5797;51.662;6.748;2023-08-06T05:29:54;9.63;;;6.40;;
11481;SDS011;5797;51.662;6.748;2023-08-06T05:32:25;8.23;;;5.57;;
11481;SDS011;5797;51.662;6.748;2023-08-06T05:34:54;12.63;;;6.23;;
11481;SDS011;5797;51.662;6.748;2023-08-06T05:37:22;9.40;;;6.13;;
11481;SDS011;5797;51.662;6.748;2023-08-06T05:39:51;7.87;;;5.97;;
11481;SDS011;5797;51.662;6.748;2023-08-06T05:42:19;10.13;;;5.50;;
11481;SDS011;5797;51.662;6.748;2023-08-06T05:44:48;9.90;;;5.93;;
11481;SDS011;5797;51.662;6.748;2023-08-06T05:47:16;7.57;;;5.50;;
11481;SDS011;5797;51.662;6.748;2023-08-06T05:49:48;9.97;;;6.17;;
11481;SDS011;5797;51.662;6.748;2023-08-06T05:52:16;8.33;;;6.20;;
11481;SDS011;5797;51.662;6.748;2023-08-06T05:54:44;10.40;;;5.90;;
11481;SDS011;5797;51.662;6.748;2023-08-06T05:57:13;8.50;;;6.03;;
11481;SDS011;5797;51.662;6.748;2023-08-06T05:59:41;7.07;;;5.47;;
11481;SDS011;5797;51.662;6.748;2023-08-06T06:02:10;10.27;;;6.13;;
11481;SDS011;5797;51.662;6.748;2023-08-06T06:04:40;6.93;;;5.30;;
11481;SDS011;5797;51.662;6.748;2023-08-06T06:07:10;12.93;;;6.40;;
11481;SDS011;5797;51.662;6.748;2023-08-06T06:09:39;7.23;;;5.13;;
11481;SDS011;5797;51.662;6.748;2023-08-06T06:12:07;14.77;;;6.03;;
11481;SDS011;5797;51.662;6.748;2023-08-06T06:14:36;7.50;;;5.63;;
11481;SDS011;5797;51.662;6.748;2023-08-06T06:17:04;7.97;;;5.57;;
11481;SDS011;5797;51.662;6.748;2023-08-06T06:19:33;10.07;;;6.03;;
11481;SDS011;5797;51.662;6.748;2023-08-06T06:22:02;12.23;;;6.20;;
11481;SDS011;5797;51.662;6.748;2023-08-06T06:24:32;7.70;;;5.83;;
11481;SDS011;5797;51.662;6.748;2023-08-06T06:27:01;10.80;;;6.27;;
11481;SDS011;5797;51.662;6.748;2023-08-06T06:29:29;15.00;;;6.30;;
11481;SDS011;5797;51.662;6.748;2023-08-06T06:31:58;8.90;;;5.40;;
11481;SDS011;5797;51.662;6.748;2023-08-06T06:34:28;12.13;;;6.60;;
11481;SDS011;5797;51.662;6.748;2023-08-06T06:36:57;9.63;;;5.67;;
11481;SDS011;5797;51.662;6.748;2023-08-06T06:39:25;9.23;;;5.67;;
11481;SDS011;5797;51.662;6.748;2023-08-06T06:41:55;7.03;;;5.13;;
11481;SDS011;5797;51.662;6.748;2023-08-06T06:44:31;7.57;;;5.57;;
11481;SDS011;5797;51.662;6.748;2023-08-06T06:46:59;5.70;;;4.33;;
11481;SDS011;5797;51.662;6.748;2023-08-06T06:49:28;8.20;;;5.00;;
11481;SDS011;5797;51.662;6.748;2023-08-06T06:51:57;8.57;;;5.00;;
11481;SDS011;5797;51.662;6.748;2023-08-06T06:54:26;8.60;;;4.83;;
11481;SDS011;5797;51.662;6.748;2023-08-06T06:58:12;11.20;;;4.73;;
11481;SDS011;5797;51.662;6.748;2023-08-06T07:01:04;6.50;;;4.70;;
11481;SDS011;5797;51.662;6.748;2023-08-06T07:03:33;6.43;;;4.87;;
11481;SDS011;5797;51.662;6.748;2023-08-06T07:06:01;7.33;;;5.03;;
11481;SDS011;5797;51.662;6.748;2023-08-06T07:08:30;7.40;;;5.20;;
11481;SDS011;5797;51.662;6.748;2023-08-06T07:10:59;9.83;;;4.67;;
11481;SDS011;5797;51.662;6.748;2023-08-06T07:13:30;7.73;;;4.33;;
11481;SDS011;5797;51.662;6.748;2023-08-06T07:15:58;9.67;;;4.50;;
11481;SDS011;5797;51.662;6.748;2023-08-06T07:18:27;7.17;;;4.30;;
11481;SDS011;5797;51.662;6.748;2023-08-06T07:20:55;9.53;;;4.23;;
11481;SDS011;5797;51.662;6.748;2023-08-06T07:23:24;5.63;;;4.13;;
11481;SDS011;5797;51.662;6.748;2023-08-06T07:25:53;5.67;;;3.90;;
11481;SDS011;5797;51.662;6.748;2023-08-06T07:28:22;5.23;;;3.80;;
11481;SDS011;5797;51.662;6.748;2023-08-06T07:30:52;8.17;;;4.20;;
11481;SDS011;5797;51.662;6.748;2023-08-06T07:33:20;5.53;;;3.70;;
11481;SDS011;5797;51.662;6.748;2023-08-06T07:35:49;5.33;;;4.20;;
11481;SDS011;5797;51.662;6.748;2023-08-06T07:38:18;3.93;;;2.93;;
11481;SDS011;5797;51.662;6.748;2023-08-06T07:40:46;5.53;;;3.10;;
11481;SDS011;5797;51.662;6.748;2023-08-06T07:43:15;4.03;;;2.70;;
11481;SDS011;5797;51.662;6.748;2023-08-06T07:45:43;5.13;;;2.50;;
11481;SDS011;5797;51.662;6.748;2023-08-06T07:48:13;3.70;;;2.47;;
11481;SDS011;5797;51.662;6.748;2023-08-06T07:50:42;4.13;;;2.43;;
11481;SDS011;5797;51.662;6.748;2023-08-06T07:53:18;4.30;;;2.70;;
11481;SDS011;5797;51.662;6.748;2023-08-06T07:55:50;6.23;;;3.20;;
11481;SDS011;5797;51.662;6.748;2023-08-06T07:58:21;5.13;;;2.97;;
11481;SDS011;5797;51.662;6.748;2023-08-06T08:00:51;4.20;;;3.20;;
11481;SDS011;5797;51.662;6.748;2023-08-06T08:03:21;4.97;;;3.57;;
11481;SDS011;5797;51.662;6.748;2023-08-06T08:05:54;5.53;;;3.77;;
11481;SDS011;5797;51.662;6.748;2023-08-06T08:08:24;7.70;;;4.67;;
11481;SDS011;5797;51.662;6.748;2023-08-06T08:10:53;10.03;;;5.50;;
11481;SDS011;5797;51.662;6.748;2023-08-06T08:13:23;7.53;;;5.37;;
11481;SDS011;5797;51.662;6.748;2023-08-06T08:15:56;8.37;;;5.93;;
11481;SDS011;5797;51.662;6.748;2023-08-06T08:18:26;9.30;;;5.97;;
11481;SDS011;5797;51.662;6.748;2023-08-06T08:20:55;7.90;;;5.33;;
11481;SDS011;5797;51.662;6.748;2023-08-06T08:23:23;6.73;;;4.87;;
11481;SDS011;5797;51.662;6.748;2023-08-06T08:25:52;6.40;;;5.07;;
11481;SDS011;5797;51.662;6.748;2023-08-06T08:28:21;7.67;;;4.93;;
11481;SDS011;5797;51.662;6.748;2023-08-06T08:30:49;7.87;;;5.37;;
11481;SDS011;5797;51.662;6.748;2023-08-06T08:33:18;5.67;;;4.87;;
11481;SDS011;5797;51.662;6.748;2023-08-06T08:35:48;6.53;;;4.87;;
11481;SDS011;5797;51.662;6.748;2023-08-06T08:38:16;8.00;;;5.67;;
11481;SDS011;5797;51.662;6.748;2023-08-06T08:40:45;8.50;;;5.97;;
11481;SDS011;5797;51.662;6.748;2023-08-06T08:43:15;9.23;;;6.13;;
11481;SDS011;5797;51.662;6.748;2023-08-06T08:45:43;6.80;;;5.23;;
11481;SDS011;5797;51.662;6.748;2023-08-06T08:48:17;6.27;;;4.57;;
11481;SDS011;5797;51.662;6.748;2023-08-06T08:50:48;5.50;;;4.50;;
11481;SDS011;5797;51.662;6.748;2023-08-06T08:53:17;5.87;;;4.83;;
11481;SDS011;5797;51.662;6.748;2023-08-06T08:55:49;7.03;;;5.43;;
11481;SDS011;5797;51.662;6.748;2023-08-06T08:58:17;7.13;;;5.37;;
11481;SDS011;5797;51.662;6.748;2023-08-06T09:00:47;5.43;;;4.93;;
11481;SDS011;5797;51.662;6.748;2023-08-06T09:03:16;7.10;;;5.53;;
11481;SDS011;5797;51.662;6.748;2023-08-06T09:05:45;6.33;;;5.73;;
11481;SDS011;5797;51.662;6.748;2023-08-06T09:08:21;7.13;;;5.67;;
11481;SDS011;5797;51.662;6.748;2023-08-06T09:10:52;11.33;;;7.70;;
11481;SDS011;5797;51.662;6.748;2023-08-06T09:13:21;9.57;;;8.57;;
11481;SDS011;5797;51.662;6.748;2023-08-06T09:15:50;9.97;;;8.70;;
11481;SDS011;5797;51.662;6.748;2023-08-06T09:18:25;12.37;;;9.90;;
11481;SDS011;5797;51.662;6.748;2023-08-06T09:20:56;14.37;;;9.20;;
11481;SDS011;5797;51.662;6.748;2023-08-06T09:23:27;11.80;;;10.50;;
11481;SDS011;5797;51.662;6.748;2023-08-06T09:25:56;13.77;;;9.90;;
11481;SDS011;5797;51.662;6.748;2023-08-06T09:28:25;12.47;;;10.50;;
11481;SDS011;5797;51.662;6.748;2023-08-06T09:31:05;11.57;;;9.63;;
11481;SDS011;5797;51.662;6.748;2023-08-06T09:33:33;11.80;;;9.70;;
11481;SDS011;5797;51.662;6.748;2023-08-06T09:36:09;12.03;;;9.33;;
11481;SDS011;5797;51.662;6.748;2023-08-06T09:38:38;10.70;;;7.93;;
11481;SDS011;5797;51.662;6.748;2023-08-06T09:41:08;9.97;;;7.40;;
11481;SDS011;5797;51.662;6.748;2023-08-06T09:43:40;9.00;;;6.80;;
11481;SDS011;5797;51.662;6.748;2023-08-06T09:46:13;6.63;;;5.93;;
11481;SDS011;5797;51.662;6.748;2023-08-06T09:48:47;7.10;;;6.40;;
11481;SDS011;5797;51.662;6.748;2023-08-06T09:51:17;7.67;;;5.90;;
11481;SDS011;5797;51.662;6.748;2023-08-06T09:53:47;7.07;;;5.93;;
11481;SDS011;5797;51.662;6.748;2023-08-06T09:56:18;6.47;;;5.87;;
11481;SDS011;5797;51.662;6.748;2023-08-06T09:58:46;7.73;;;5.37;;
11481;SDS011;5797;51.662;6.748;2023-08-06T10:01:15;7.37;;;5.90;;
11481;SDS011;5797;51.662;6.748;2023-08-06T10:03:45;7.27;;;5.27;;
11481;SDS011;5797;51.662;6.748;2023-08-06T10:06:18;5.67;;;5.07;;
11481;SDS011;5797;51.662;6.748;2023-08-06T10:08:48;8.57;;;5.53;;
11481;SDS011;5797;51.662;6.748;2023-08-06T10:11:16;5.90;;;5.30;;
11481;SDS011;5797;51.662;6.748;2023-08-06T10:13:46;7.37;;;5.80;;
11481;SDS011;5797;51.662;6.748;2023-08-06T10:16:15;6.70;;;5.33;;
11481;SDS011;5797;51.662;6.748;2023-08-06T10:18:44;7.20;;;6.27;;
11481;SDS011;5797;51.662;6.748;2023-08-06T10:21:13;7.90;;;6.80;;
11481;SDS011;5797;51.662;6.748;2023-08-06T10:23:44;10.87;;;6.80;;
11481;SDS011;5797;51.662;6.748;2023-08-06T10:26:13;10.50;;;6.90;;
11481;SDS011;5797;51.662;6.748;2023-08-06T10:28:44;8.57;;;6.10;;
11481;SDS011;5797;51.662;6.748;2023-08-06T10:31:13;7.93;;;6.07;;
11481;SDS011;5797;51.662;6.748;2023-08-06T10:33:42;7.43;;;6.03;;
11481;SDS011;5797;51.662;6.748;2023-08-06T10:36:12;7.63;;;6.17;;
11481;SDS011;5797;51.662;6.748;2023-08-06T10:38:45;9.03;;;6.53;;
11481;SDS011;5797;51.662;6.748;2023-08-06T10:41:15;8.13;;;6.23;;
11481;SDS011;5797;51.662;6.748;2023-08-06T10:43:44;8.53;;;6.40;;
11481;SDS011;5797;51.662;6.748;2023-08-06T10:46:22;7.10;;;5.90;;
11481;SDS011;5797;51.662;6.748;2023-08-06T10:48:51;9.07;;;7.20;;
11481;SDS011;5797;51.662;6.748;2023-08-06T10:51:20;8.23;;;6.80;;
11481;SDS011;5797;51.662;6.748;2023-08-06T10:53:50;10.03;;;8.90;;
11481;SDS011;5797;51.662;6.748;2023-08-06T10:56:19;9.60;;;8.53;;
11481;SDS011;5797;51.662;6.748;2023-08-06T10:58:50;12.30;;;9.03;;
11481;SDS011;5797;51.662;6.748;2023-08-06T11:01:20;11.53;;;9.60;;
11481;SDS011;5797;51.662;6.748;2023-08-06T11:03:50;12.57;;;9.90;;
11481;SDS011;5797;51.662;6.748;2023-08-06T11:06:21;14.57;;;9.83;;
11481;SDS011;5797;51.662;6.748;2023-08-06T11:08:52;13.37;;;10.13;;
11481;SDS011;5797;51.662;6.748;2023-08-06T11:11:22;15.57;;;10.30;;
11481;SDS011;5797;51.662;6.748;2023-08-06T11:13:51;11.83;;;9.43;;
11481;SDS011;5797;51.662;6.748;2023-08-06T11:16:21;14.30;;;10.33;;
11481;SDS011;5797;51.662;6.748;2023-08-06T11:18:51;15.40;;;10.07;;
11481;SDS011;5797;51.662;6.748;2023-08-06T11:21:21;15.50;;;11.23;;
11481;SDS011;5797;51.662;6.748;2023-08-06T11:23:52;16.13;;;11.80;;
11481;SDS011;5797;51.662;6.748;2023-08-06T11:26:21;16.00;;;10.60;;
11481;SDS011;5797;51.662;6.748;2023-08-06T11:28:51;14.30;;;11.13;;
11481;SDS011;5797;51.662;6.748;2023-08-06T11:31:19;9.73;;;7.73;;
11481;SDS011;5797;51.662;6.748;2023-08-06T11:33:50;7.00;;;5.30;;
11481;SDS011;5797;51.662;6.748;2023-08-06T11:36:28;6.77;;;4.20;;
11481;SDS011;5797;51.662;6.748;2023-08-06T11:38:58;5.27;;;3.53;;
11481;SDS011;5797;51.662;6.748;2023-08-06T11:41:27;3.57;;;3.23;;
11481;SDS011;5797;51.662;6.748;2023-08-06T11:43:56;3.00;;;2.63;;
11481;SDS011;5797;51.662;6.748;2023-08-06T11:46:24;2.40;;;2.20;;
11481;SDS011;5797;51.662;6.748;2023-08-06T11:48:54;3.33;;;2.40;;
11481;SDS011;5797;51.662;6.748;2023-08-06T11:51:23;3.47;;;2.33;;
11481;SDS011;5797;51.662;6.748;2023-08-06T11:53:55;1.80;;;1.50;;
11481;SDS011;5797;51.662;6.748;2023-08-06T11:56:25;1.63;;;1.30;;
11481;SDS011;5797;51.662;6.748;2023-08-06T11:58:54;1.23;;;1.00;;
11481;SDS011;5797;51.662;6.748;2023-08-06T12:01:23;1.20;;;1.10;;
11481;SDS011;5797;51.662;6.748;2023-08-06T12:03:51;1.87;;;1.10;;
11481;SDS011;5797;51.662;6.748;2023-08-06T12:06:20;1.10;;;1.00;;
11481;SDS011;5797;51.662;6.748;2023-08-06T12:08:51;0.90;;;0.90;;
11481;SDS011;5797;51.662;6.748;2023-08-06T12:11:20;1.00;;;0.90;;
11481;SDS011;5797;51.662;6.748;2023-08-06T12:13:51;1.23;;;0.77;;
11481;SDS011;5797;51.662;6.748;2023-08-06T12:16:20;1.13;;;1.03;;
11481;SDS011;5797;51.662;6.748;2023-08-06T12:18:51;1.20;;;1.00;;
11481;SDS011;5797;51.662;6.748;2023-08-06T12:21:20;0.97;;;0.87;;
11481;SDS011;5797;51.662;6.748;2023-08-06T12:23:48;1.30;;;1.13;;
11481;SDS011;5797;51.662;6.748;2023-08-06T12:26:17;2.63;;;1.20;;
11481;SDS011;5797;51.662;6.748;2023-08-06T12:28:46;1.40;;;0.90;;
11481;SDS011;5797;51.662;6.748;2023-08-06T12:31:18;0.83;;;0.83;;
11481;SDS011;5797;51.662;6.748;2023-08-06T12:33:46;1.17;;;1.00;;
11481;SDS011;5797;51.662;6.748;2023-08-06T12:36:15;2.73;;;1.00;;
11481;SDS011;5797;51.662;6.748;2023-08-06T12:38:43;0.90;;;0.90;;
11481;SDS011;5797;51.662;6.748;2023-08-06T12:41:12;0.73;;;0.70;;
11481;SDS011;5797;51.662;6.748;2023-08-06T12:43:40;1.27;;;1.00;;
11481;SDS011;5797;51.662;6.748;2023-08-06T12:46:09;1.10;;;1.00;;
11481;SDS011;5797;51.662;6.748;2023-08-06T12:48:40;1.60;;;1.00;;
11481;SDS011;5797;51.662;6.748;2023-08-06T12:51:12;0.87;;;0.83;;
11481;SDS011;5797;51.662;6.748;2023-08-06T12:53:40;1.20;;;1.00;;
11481;SDS011;5797;51.662;6.748;2023-08-06T12:56:09;1.70;;;1.20;;
11481;SDS011;5797;51.662;6.748;2023-08-06T12:58:37;1.03;;;0.97;;
11481;SDS011;5797;51.662;6.748;2023-08-06T13:01:06;0.93;;;0.87;;
11481;SDS011;5797;51.662;6.748;2023-08-06T13:03:35;1.27;;;1.00;;
11481;SDS011;5797;51.662;6.748;2023-08-06T13:06:05;0.90;;;0.90;;
11481;SDS011;5797;51.662;6.748;2023-08-06T13:08:34;1.30;;;1.10;;
11481;SDS011;5797;51.662;6.748;2023-08-06T13:11:03;1.27;;;1.17;;
11481;SDS011;5797;51.662;6.748;2023-08-06T13:13:31;1.50;;;1.10;;
11481;SDS011;5797;51.662;6.748;2023-08-06T13:16:00;1.67;;;1.23;;
11481;SDS011;5797;51.662;6.748;2023-08-06T13:18:29;1.30;;;1.20;;
11481;SDS011;5797;51.662;6.748;2023-08-06T13:20:58;1.37;;;1.23;;
11481;SDS011;5797;51.662;6.748;2023-08-06T13:23:28;2.00;;;1.30;;
11481;SDS011;5797;51.662;6.748;2023-08-06T13:25:56;4.50;;;1.40;;
11481;SDS011;5797;51.662;6.748;2023-08-06T13:28:25;1.30;;;1.20;;
11481;SDS011;5797;51.662;6.748;2023-08-06T13:30:54;2.47;;;1.33;;
11481;SDS011;5797;51.662;6.748;2023-08-06T13:33:22;2.70;;;1.40;;
11481;SDS011;5797;51.662;6.748;2023-08-06T13:35:52;1.37;;;1.10;;
11481;SDS011;5797;51.662;6.748;2023-08-06T13:38:21;2.10;;;1.40;;
11481;SDS011;5797;51.662;6.748;2023-08-06T13:40:50;1.57;;;1.30;;
11481;SDS011;5797;51.662;6.748;2023-08-06T13:43:19;1.43;;;1.27;;
11481;SDS011;5797;51.662;6.748;2023-08-06T13:45:48;1.93;;;1.43;;
11481;SDS011;5797;51.662;6.748;2023-08-06T13:48:16;1.40;;;1.30;;
11481;SDS011;5797;51.662;6.748;2023-08-06T13:50:45;2.80;;;1.43;;
11481;SDS011;5797;51.662;6.748;2023-08-06T13:53:13;1.47;;;1.33;;
11481;SDS011;5797;51.662;6.748;2023-08-06T13:55:43;1.80;;;1.60;;
11481;SDS011;5797;51.662;6.748;2023-08-06T13:58:13;2.80;;;2.13;;
11481;SDS011;5797;51.662;6.748;2023-08-06T14:00:41;2.30;;;1.93;;
11481;SDS011;5797;51.662;6.748;2023-08-06T14:03:10;2.00;;;1.73;;
11481;SDS011;5797;51.662;6.748;2023-08-06T14:05:38;2.13;;;1.63;;
11481;SDS011;5797;51.662;6.748;2023-08-06T14:08:07;2.03;;;1.70;;
11481;SDS011;5797;51.662;6.748;2023-08-06T14:10:35;3.00;;;1.77;;
11481;SDS011;5797;51.662;6.748;2023-08-06T14:13:04;2.17;;;1.97;;
11481;SDS011;5797;51.662;6.748;2023-08-06T14:15:38;2.67;;;2.07;;
11481;SDS011;5797;51.662;6.748;2023-08-06T14:18:07;3.20;;;2.30;;
11481;SDS011;5797;51.662;6.748;2023-08-06T14:20:36;2.77;;;2.00;;
11481;SDS011;5797;51.662;6.748;2023-08-06T14:23:04;3.93;;;2.30;;
11481;SDS011;5797;51.662;6.748;2023-08-06T14:25:33;3.20;;;2.10;;
11481;SDS011;5797;51.662;6.748;2023-08-06T14:28:02;3.70;;;2.10;;
11481;SDS011;5797;51.662;6.748;2023-08-06T14:30:31;2.80;;;2.37;;
11481;SDS011;5797;51.662;6.748;2023-08-06T14:33:00;5.00;;;2.90;;
11481;SDS011;5797;51.662;6.748;2023-08-06T14:35:47;6.30;;;2.87;;
11481;SDS011;5797;51.662;6.748;2023-08-06T14:38:15;4.73;;;2.67;;
11481;SDS011;5797;51.662;6.748;2023-08-06T14:40:44;6.00;;;3.10;;
11481;SDS011;5797;51.662;6.748;2023-08-06T14:43:13;3.47;;;2.57;;
11481;SDS011;5797;51.662;6.748;2023-08-06T14:45:44;5.40;;;2.80;;
11481;SDS011;5797;51.662;6.748;2023-08-06T14:48:14;4.10;;;2.57;;
11481;SDS011;5797;51.662;6.748;2023-08-06T14:50:43;3.37;;;2.60;;
11481;SDS011;5797;51.662;6.748;2023-08-06T14:53:11;3.93;;;2.60;;
11481;SDS011;5797;51.662;6.748;2023-08-06T14:55:40;4.67;;;2.57;;
11481;SDS011;5797;51.662;6.748;2023-08-06T14:58:09;2.97;;;2.50;;
11481;SDS011;5797;51.662;6.748;2023-08-06T15:00:38;3.43;;;2.37;;
11481;SDS011;5797;51.662;6.748;2023-08-06T15:03:06;5.73;;;2.43;;
11481;SDS011;5797;51.662;6.748;2023-08-06T15:05:36;6.10;;;2.33;;
11481;SDS011;5797;51.662;6.748;2023-08-06T15:08:05;3.90;;;2.40;;
11481;SDS011;5797;51.662;6.748;2023-08-06T15:10:33;3.27;;;2.13;;
11481;SDS011;5797;51.662;6.748;2023-08-06T15:13:02;4.07;;;2.10;;